Time;durP1;ratioP1;P1;durP2;ratioP2;P2;SDS_P1;SDS_P2;PMS_P1;PMS_P2;Temp;Humidity;BMP_temperature;BMP_pressure;BME280_temperature;BME280_humidity;BME280_pressure;Samples;Min_cycle;Max_cycle;Signal;HPM_P1;HPM_P2
2021/04/19 00:01:25;;;;;;;17.90;13.38;;;;;;;6.08;95.75;97931.28;5031227;28;20472;-80
2021/04/19 00:03:50;;;;;;;22.60;14.32;;;;;;;6.09;96.07;97938.38;5032517;28;20429;-82
2021/04/19 00:06:16;;;;;;;27.70;16.90;;;;;;;5.98;97.51;97936.72;5032921;28;20075;-83
2021/04/19 00:08:41;;;;;;;22.88;15.13;;;;;;;6.05;97.76;97920.97;5032983;28;20060;-77
2021/04/19 00:11:07;;;;;;;22.45;15.40;;;;;;;5.98;97.75;97926.69;5032411;28;20018;-79
2021/04/19 00:13:32;;;;;;;22.80;16.15;;;;;;;5.90;98.51;97919.84;5033378;28;20032;-83
2021/04/19 00:15:57;;;;;;;25.33;15.75;;;;;;;6.06;98.74;97933.47;5034796;28;20036;-82
2021/04/19 00:18:23;;;;;;;23.20;16.80;;;;;;;5.90;98.87;97946.19;5035061;28;20030;-77
2021/04/19 00:20:48;;;;;;;23.80;17.23;;;;;;;5.86;99.87;97939.63;5037428;28;20084;-77
2021/04/19 00:23:14;;;;;;;23.55;15.30;;;;;;;5.64;100.00;97925.44;5019650;28;20013;-81
2021/04/19 00:25:39;;;;;;;25.83;16.02;;;;;;;5.60;99.95;97924.31;5030289;28;20032;-80
2021/04/19 00:28:05;;;;;;;21.40;14.77;;;;;;;5.69;100.00;97928.16;5032863;28;20025;-80
2021/04/19 00:30:30;;;;;;;18.40;15.18;;;;;;;5.57;99.88;97922.13;5032965;28;20017;-78
2021/04/19 00:32:56;;;;;;;20.02;15.63;;;;;;;5.58;100.00;97931.88;5031811;28;20563;-81
2021/04/19 00:35:21;;;;;;;28.38;15.63;;;;;;;5.52;100.00;97922.09;5032460;28;20466;-80
2021/04/19 00:37:47;;;;;;;25.05;15.45;;;;;;;5.30;100.00;97893.22;5027720;28;20041;-81
2021/04/19 00:40:16;;;;;;;23.42;16.48;;;;;;;5.45;99.29;97921.53;5018992;28;20047;-78
2021/04/19 00:42:43;;;;;;;22.10;15.52;;;;;;;5.43;99.12;97927.19;5020033;28;20026;-77
2021/04/19 00:45:10;;;;;;;19.77;14.07;;;;;;;5.56;99.20;97923.19;5011341;28;20022;-77
2021/04/19 00:47:36;;;;;;;25.20;16.27;;;;;;;5.42;98.32;97898.44;5012077;28;20442;-77
2021/04/19 00:50:04;;;;;;;30.45;16.90;;;;;;;5.55;97.94;97914.25;5014028;28;20378;-77
2021/04/19 00:52:30;;;;;;;25.83;17.60;;;;;;;5.44;98.82;97903.59;5013304;28;20427;-77
2021/04/19 00:54:58;;;;;;;23.38;15.75;;;;;;;5.35;98.82;97917.69;5013973;28;20024;-78
2021/04/19 00:57:23;;;;;;;26.13;16.50;;;;;;;5.26;99.16;97919.22;5018759;28;20041;-81
2021/04/19 00:59:49;;;;;;;23.25;15.48;;;;;;;5.40;98.96;97914.16;5021136;28;20072;-76
2021/04/19 01:02:14;;;;;;;25.58;16.80;;;;;;;5.37;98.04;97909.25;5032281;28;20393;-77
2021/04/19 01:04:39;;;;;;;23.02;15.93;;;;;;;5.27;98.64;97915.44;5032747;28;20474;-80
2021/04/19 01:07:05;;;;;;;22.33;15.45;;;;;;;5.16;99.80;97912.94;5030152;28;20494;-82
2021/04/19 01:09:30;;;;;;;21.27;14.25;;;;;;;5.15;99.85;97900.47;5047230;28;20087;-77
2021/04/19 01:11:56;;;;;;;;;;;;;;;5.20;100.00;97908.63;5031299;28;20125;-83
2021/04/19 01:14:23;;;;;;;23.83;16.05;;;;;;;4.99;100.00;97913.09;5030664;28;19913;-79
2021/04/19 01:16:49;;;;;;;23.52;14.20;;;;;;;4.98;100.00;97906.03;5031124;28;20029;-81
2021/04/19 01:19:14;;;;;;;24.17;16.00;;;;;;;5.04;100.00;97898.78;5029823;28;20509;-88
2021/04/19 01:21:40;;;;;;;22.33;14.45;;;;;;;4.99;100.00;97906.84;5013193;28;20128;-85
2021/04/19 01:24:06;;;;;;;19.80;13.63;;;;;;;4.82;100.00;97888.84;5012567;28;20029;-89
2021/04/19 01:26:31;;;;;;;18.48;13.40;;;;;;;4.74;100.00;97866.84;5013728;28;20034;-85
2021/04/19 01:28:57;;;;;;;19.30;12.90;;;;;;;4.79;100.00;97892.09;5013114;28;20026;-86
2021/04/19 01:31:22;;;;;;;20.27;13.98;;;;;;;4.80;100.00;97909.16;5012971;28;20076;-85
2021/04/19 01:33:47;;;;;;;20.30;14.45;;;;;;;4.73;100.00;97886.91;5013243;28;20022;-81
2021/04/19 01:36:13;;;;;;;;;;;;;;;4.84;100.00;97896.72;5025792;28;20030;-85
2021/04/19 01:38:42;;;;;;;23.38;14.70;;;;;;;4.59;100.00;97875.69;5032089;28;19923;-85
2021/04/19 01:41:07;;;;;;;17.60;14.05;;;;;;;4.59;100.00;97891.94;5011237;28;20026;-85
2021/04/19 01:43:32;;;;;;;18.55;12.52;;;;;;;4.73;100.00;97878.78;5026960;28;20018;-84
2021/04/19 01:45:58;;;;;;;18.35;12.60;;;;;;;4.65;100.00;97868.41;5030658;28;20021;-87
2021/04/19 01:48:25;;;;;;;17.50;13.32;;;;;;;4.68;100.00;97889.56;5031758;28;20025;-85
2021/04/19 01:50:53;;;;;;;23.08;13.25;;;;;;;4.73;100.00;97878.78;5031503;28;20025;-83
2021/04/19 01:53:19;;;;;;;17.05;12.15;;;;;;;4.75;100.00;97868.50;5032218;28;20025;-85
2021/04/19 01:55:45;;;;;;;19.50;13.98;;;;;;;4.97;100.00;97904.41;5033012;28;20108;-85
2021/04/19 01:58:14;;;;;;;19.10;14.55;;;;;;;4.50;100.00;97850.16;5032351;28;20025;-88
2021/04/19 02:00:42;;;;;;;18.45;11.98;;;;;;;4.61;100.00;97881.66;5033523;28;20026;-83
2021/04/19 02:03:29;;;;;;;21.17;12.85;;;;;;;4.79;100.00;97883.94;5051224;28;20009;-84
2021/04/19 02:06:06;;;;;;;17.65;12.35;;;;;;;4.64;100.00;97889.25;5035432;28;20032;-83
2021/04/19 02:08:49;;;;;;;19.75;12.80;;;;;;;4.62;100.00;97882.47;5050735;28;20046;-81
2021/04/19 02:11:43;;;;;;;19.77;13.50;;;;;;;4.36;100.00;97859.78;5035450;28;20098;-77
2021/04/19 02:14:22;;;;;;;18.08;13.20;;;;;;;4.48;100.00;97900.25;5035587;28;20104;-79
2021/04/19 02:17:02;;;;;;;19.40;13.95;;;;;;;4.45;100.00;97887.22;5035245;28;20052;-79
2021/04/19 02:19:42;;;;;;;16.05;12.18;;;;;;;4.49;100.00;97891.84;5033801;28;20037;-80
2021/04/19 02:22:18;;;;;;;19.30;12.40;;;;;;;4.56;100.00;97894.34;5035014;28;20486;-81
2021/04/19 02:24:48;;;;;;;23.23;13.63;;;;;;;4.48;100.00;97873.97;5035423;28;20511;-79
2021/04/19 02:27:25;;;;;;;16.98;12.85;;;;;;;4.59;100.00;97889.22;5035200;28;20030;-80
2021/04/19 02:29:54;;;;;;;21.85;11.93;;;;;;;4.54;100.00;97875.63;5015176;28;20030;-76
2021/04/19 02:32:27;;;;;;;16.20;12.88;;;;;;;4.49;100.00;97889.13;5015207;28;20478;-79
2021/04/19 02:34:58;;;;;;;22.70;13.52;;;;;;;4.39;100.00;97869.28;5015602;28;20033;-82
2021/04/19 02:37:25;;;;;;;20.30;13.20;;;;;;;4.18;100.00;97852.88;5016306;28;20117;-81
2021/04/19 02:39:51;;;;;;;22.35;12.80;;;;;;;4.27;100.00;97862.16;5014731;28;20048;-79
2021/04/19 02:42:17;;;;;;;16.55;11.93;;;;;;;4.41;100.00;97872.56;5015967;28;20030;-76
2021/04/19 02:44:50;;;;;;;19.73;12.80;;;;;;;4.20;100.00;97849.88;5016557;28;20525;-78
2021/04/19 02:47:17;;;;;;;19.98;13.13;;;;;;;4.08;100.00;97838.41;5017479;28;20052;-80
2021/04/19 02:49:43;;;;;;;17.23;13.18;;;;;;;4.38;100.00;97873.06;5027784;28;20033;-84
2021/04/19 02:52:10;;;;;;;18.35;13.65;;;;;;;4.30;100.00;97861.63;5036698;28;20072;-83
2021/04/19 02:54:39;;;;;;;18.15;13.90;;;;;;;4.39;100.00;97870.09;5038281;28;20033;-82
2021/04/19 02:57:25;;;;;;;19.48;13.57;;;;;;;4.27;100.00;97870.28;5037358;28;20022;-81
2021/04/19 02:59:52;;;;;;;19.13;12.47;;;;;;;4.26;100.00;97868.63;5034217;28;20033;-77
2021/04/19 03:02:20;;;;;;;21.42;13.40;;;;;;;4.30;100.00;97850.81;5033904;28;20077;-80
2021/04/19 03:04:46;;;;;;;21.13;13.43;;;;;;;4.16;100.00;97855.03;5034083;28;20071;-77
2021/04/19 03:07:12;;;;;;;17.42;12.48;;;;;;;4.02;100.00;97852.97;5049444;28;20119;-80
2021/04/19 03:09:44;;;;;;;22.35;14.30;;;;;;;3.94;100.00;97865.09;5032733;28;20025;-77
2021/04/19 03:12:12;;;;;;;21.17;14.73;;;;;;;3.90;100.00;97861.25;5033792;28;20099;-79
2021/04/19 03:14:48;;;;;;;22.05;14.95;;;;;;;4.07;100.00;97867.34;5049609;28;20029;-78
2021/04/19 03:17:16;;;;;;;21.02;15.43;;;;;;;4.09;100.00;97856.28;5033551;28;20037;-80
2021/04/19 03:19:46;;;;;;;16.67;12.98;;;;;;;4.14;100.00;97865.28;5032964;28;20053;-78
2021/04/19 03:22:13;;;;;;;17.88;13.68;;;;;;;3.83;100.00;97844.41;5032669;28;20028;-81
2021/04/19 03:24:41;;;;;;;18.25;14.40;;;;;;;3.88;100.00;97860.69;5030268;28;20018;-78
2021/04/19 03:27:07;;;;;;;18.30;14.15;;;;;;;4.14;100.00;97867.16;5013901;28;20025;-77
2021/04/19 03:29:34;;;;;;;17.95;12.35;;;;;;;4.02;100.00;97859.19;5030752;28;20018;-78
2021/04/19 03:32:16;;;;;;;20.95;15.40;;;;;;;4.06;100.00;97859.50;5032556;28;20057;-81
2021/04/19 03:34:44;;;;;;;20.67;13.45;;;;;;;4.00;100.00;97872.19;5031773;28;20362;-82
2021/04/19 03:37:24;;;;;;;20.13;15.07;;;;;;;3.83;100.00;97854.41;5033399;28;20025;-78
2021/04/19 03:40:01;;;;;;;24.05;14.57;;;;;;;3.83;100.00;97857.91;5033253;28;20624;-87
2021/04/19 03:42:28;;;;;;;21.67;15.18;;;;;;;3.82;100.00;97867.13;5034666;28;20056;-82
2021/04/19 03:44:56;;;;;;;20.77;12.82;;;;;;;4.01;100.00;97859.47;5034330;28;20025;-79
2021/04/19 03:47:23;;;;;;;20.98;14.07;;;;;;;3.94;100.00;97845.31;5036025;28;20022;-76
2021/04/19 03:49:53;;;;;;;20.73;14.05;;;;;;;3.99;100.00;97869.72;5035200;28;20029;-80
2021/04/19 03:52:25;;;;;;;21.60;14.60;;;;;;;3.83;100.00;97851.69;5034533;28;20037;-77
2021/04/19 03:54:55;;;;;;;19.75;15.13;;;;;;;3.98;100.00;97874.31;5032987;28;20581;-77
2021/04/19 03:57:23;;;;;;;20.52;14.68;;;;;;;3.94;100.00;97872.38;5033694;28;20025;-76
2021/04/19 03:59:56;;;;;;;20.33;15.15;;;;;;;4.05;100.00;97869.50;5033817;28;20493;-77
2021/04/19 04:02:23;;;;;;;20.65;13.32;;;;;;;4.06;100.00;97868.44;5044270;28;20034;-80
2021/04/19 04:04:51;;;;;;;20.15;14.55;;;;;;;3.90;100.00;97861.25;5013692;28;20040;-78
2021/04/19 04:07:40;;;;;;;21.27;14.85;;;;;;;3.83;100.00;97866.03;5013243;28;20034;-76
2021/04/19 04:10:07;;;;;;;21.55;14.93;;;;;;;3.73;100.00;97855.09;5008865;28;20490;-80
2021/04/19 04:12:35;;;;;;;18.67;15.15;;;;;;;3.64;100.00;97851.22;5013084;28;20493;-76
2021/04/19 04:15:25;;;;;;;30.17;16.10;;;;;;;3.68;100.00;97873.97;5013020;28;20029;-79
2021/04/19 04:17:55;;;;;;;24.08;16.23;;;;;;;3.56;100.00;97873.31;5012630;28;20026;-75
2021/04/19 04:20:21;;;;;;;21.17;16.15;;;;;;;3.57;100.00;97870.34;5011878;28;20108;-76
2021/04/19 04:22:47;;;;;;;22.55;14.80;;;;;;;3.61;100.00;97857.94;5011043;28;20459;-78
2021/04/19 04:25:15;;;;;;;21.95;14.93;;;;;;;3.83;100.00;97876.84;5013086;28;20037;-78
2021/04/19 04:27:40;;;;;;;16.73;13.23;;;;;;;3.68;100.00;97864.00;5014090;28;20034;-77
2021/04/19 04:30:06;;;;;;;20.52;14.00;;;;;;;3.67;100.00;97870.47;5011133;28;20038;-79
2021/04/19 04:32:31;;;;;;;16.50;12.23;;;;;;;3.99;100.00;97878.66;5023099;28;20025;-81
2021/04/19 04:34:57;;;;;;;16.23;11.73;;;;;;;4.08;100.00;97877.13;5020379;28;20092;-87
2021/04/19 04:37:22;;;;;;;16.48;12.52;;;;;;;3.93;100.00;97876.97;5025437;28;20021;-75
2021/04/19 04:39:48;;;;;;;24.88;14.40;;;;;;;3.74;100.00;97864.84;5016120;28;20057;-76
2021/04/19 04:42:18;;;;;;;19.80;13.60;;;;;;;3.81;100.00;97873.59;5021035;28;20034;-76
2021/04/19 04:44:46;;;;;;;17.77;12.65;;;;;;;3.77;100.00;97876.00;5020769;28;20021;-76
2021/04/19 04:47:33;;;;;;;18.25;13.10;;;;;;;3.91;100.00;97879.13;5020346;28;20025;-79
2021/04/19 04:50:01;;;;;;;17.80;12.82;;;;;;;4.12;100.00;97880.97;5019707;28;20037;-75
2021/04/19 04:52:36;;;;;;;22.65;13.68;;;;;;;4.13;100.00;97874.47;5019606;28;20028;-74
2021/04/19 04:55:04;;;;;;;20.17;13.18;;;;;;;4.16;100.00;97860.44;5023151;28;20382;-74
2021/04/19 04:57:29;;;;;;;20.52;12.70;;;;;;;4.10;100.00;97872.25;5020571;28;20112;-76
2021/04/19 04:59:56;;;;;;;22.48;12.50;;;;;;;4.19;100.00;97870.75;5019822;28;20021;-75
2021/04/19 05:02:27;;;;;;;20.90;14.32;;;;;;;4.06;100.00;97849.50;5015076;28;20523;-75
2021/04/19 05:04:53;;;;;;;21.20;14.48;;;;;;;4.20;100.00;97883.19;5018110;28;20473;-75
2021/04/19 05:07:20;;;;;;;17.00;13.20;;;;;;;4.19;100.00;97868.03;5017839;28;20026;-76
2021/04/19 05:09:48;;;;;;;20.92;13.00;;;;;;;4.31;100.00;97876.00;5016910;28;20010;-78
2021/04/19 05:12:14;;;;;;;24.52;14.88;;;;;;;4.44;100.00;97872.03;5019943;28;20030;-86
2021/04/19 05:14:40;;;;;;;21.15;14.32;;;;;;;4.45;99.64;97879.09;5020781;28;20053;-75
2021/04/19 05:17:09;;;;;;;21.70;14.13;;;;;;;4.43;100.00;97868.50;5022222;28;20030;-78
2021/04/19 05:19:35;;;;;;;24.98;14.63;;;;;;;4.52;100.00;97879.69;5042291;28;20033;-75
2021/04/19 05:22:01;;;;;;;20.80;14.95;;;;;;;4.59;99.78;97893.81;5023425;28;20044;-76
2021/04/19 05:24:26;;;;;;;23.90;14.45;;;;;;;4.44;99.84;97877.44;5019363;28;20026;-75
2021/04/19 05:26:52;;;;;;;22.75;14.45;;;;;;;4.56;100.00;97878.09;5025898;28;20486;-75
2021/04/19 05:29:18;;;;;;;20.85;14.50;;;;;;;4.66;99.95;97892.53;5019770;28;20029;-81
2021/04/19 05:31:43;;;;;;;26.20;16.65;;;;;;;4.63;100.00;97884.13;5018699;28;20453;-84
2021/04/19 05:34:09;;;;;;;22.25;15.52;;;;;;;4.64;100.00;97878.44;5017451;28;20034;-83
2021/04/19 05:36:35;;;;;;;24.25;15.77;;;;;;;4.59;100.00;97853.19;5027103;28;20034;-90
2021/04/19 05:39:06;;;;;;;23.98;15.75;;;;;;;4.93;99.22;97884.31;5031043;28;20064;-88
2021/04/19 05:41:32;;;;;;;25.48;15.60;;;;;;;5.09;98.75;97885.25;5036470;28;20052;-87
2021/04/19 05:43:58;;;;;;;24.38;15.73;;;;;;;5.17;99.07;97879.34;5034652;28;20029;-85
2021/04/19 05:46:23;;;;;;;23.05;16.00;;;;;;;5.09;97.71;97880.66;5035221;28;20025;-86
2021/04/19 05:48:49;;;;;;;27.20;15.63;;;;;;;5.21;97.21;97864.97;5035966;28;20449;-87
2021/04/19 05:51:22;;;;;;;24.48;14.80;;;;;;;5.44;96.62;97892.75;5035927;28;20024;-86
2021/04/19 05:53:51;;;;;;;23.83;15.57;;;;;;;5.69;95.96;97882.84;5036234;28;20037;-91
2021/04/19 05:57:00;;;;;;;21.65;15.43;;;;;;;5.79;95.46;97879.34;5038832;28;20017;-87
2021/04/19 05:59:44;;;;;;;24.27;16.33;;;;;;;5.94;95.22;97887.56;5019547;28;20621;-75
2021/04/19 06:02:12;;;;;;;21.65;14.25;;;;;;;6.13;93.52;97885.16;5034069;28;20553;-74
2021/04/19 06:04:59;;;;;;;19.00;13.27;;;;;;;6.18;90.75;97888.72;5034179;28;20026;-74
2021/04/19 06:07:31;;;;;;;17.42;12.93;;;;;;;6.15;90.88;97891.13;5032357;28;20049;-74
2021/04/19 06:10:10;;;;;;;20.40;13.63;;;;;;;6.29;90.73;97895.81;5041591;28;20033;-74
2021/04/19 06:12:41;;;;;;;26.02;14.93;;;;;;;6.35;91.05;97896.63;5034181;28;20426;-75
2021/04/19 06:15:13;;;;;;;21.73;14.38;;;;;;;6.57;90.81;97893.66;5034017;28;20496;-75
2021/04/19 06:17:44;;;;;;;20.30;14.77;;;;;;;6.72;90.14;97893.66;5034242;28;20044;-74
2021/04/19 06:20:11;;;;;;;26.50;16.08;;;;;;;6.73;90.43;97892.56;5031096;28;20070;-74
2021/04/19 06:22:38;;;;;;;19.83;14.57;;;;;;;6.94;89.04;97896.91;5031640;28;20555;-81
2021/04/19 06:25:03;;;;;;;23.70;16.35;;;;;;;6.75;88.68;97891.22;5024558;28;20127;-84
2021/04/19 06:27:29;;;;;;;23.67;17.35;;;;;;;6.53;91.16;97889.84;5034855;28;20030;-81
2021/04/19 06:29:55;;;;;;;27.13;17.55;;;;;;;6.67;90.73;97880.06;5017636;28;20041;-87
2021/04/19 06:32:24;;;;;;;23.98;18.02;;;;;;;6.62;91.82;97893.63;5014572;28;20389;-87
2021/04/19 06:34:50;;;;;;;25.17;14.35;;;;;;;6.67;91.68;97893.66;5016141;28;21056;-89
2021/04/19 06:37:17;;;;;;;27.40;17.42;;;;;;;6.74;91.94;97886.03;5019259;28;20034;-88
2021/04/19 06:39:43;;;;;;;23.42;17.25;;;;;;;6.66;91.00;97878.44;5035318;28;20474;-84
2021/04/19 06:44:59;;;;;;;24.17;16.75;;;;;;;6.69;90.42;97889.56;5038267;28;20067;-87
2021/04/19 06:47:43;;;;;;;29.75;18.83;;;;;;;6.98;90.71;97896.06;5032970;28;20037;-90
2021/04/19 06:50:10;;;;;;;28.20;16.05;;;;;;;7.11;89.74;97885.75;5037025;28;20495;-86
2021/04/19 06:52:39;;;;;;;22.50;16.58;;;;;;;7.31;87.87;97891.94;5030957;28;20127;-88
2021/04/19 06:55:05;;;;;;;25.77;17.80;;;;;;;7.26;87.58;97894.69;5035149;28;20132;-81
2021/04/19 06:57:41;;;;;;;24.58;15.95;;;;;;;7.48;87.24;97897.91;5022453;28;20430;-87
2021/04/19 07:00:07;;;;;;;24.70;17.42;;;;;;;7.59;86.44;97886.97;5014497;28;20034;-87
2021/04/19 07:02:39;;;;;;;27.58;17.45;;;;;;;7.49;86.46;97887.81;5015605;28;20026;-87
2021/04/19 07:05:06;;;;;;;24.27;16.67;;;;;;;7.38;87.60;97891.66;5014334;28;20117;-88
2021/04/19 07:07:36;;;;;;;25.15;16.40;;;;;;;7.68;87.21;97893.44;5013360;28;20054;-89
2021/04/19 07:10:06;;;;;;;30.10;17.50;;;;;;;7.53;86.38;97900.59;5040593;28;20036;-88
2021/04/19 07:12:37;;;;;;;25.05;17.25;;;;;;;7.36;86.51;97867.44;5030026;28;20029;-84
2021/04/19 07:15:04;;;;;;;28.25;18.63;;;;;;;7.97;85.68;97888.97;5037499;28;20029;-90
2021/04/19 07:20:37;;;;;;;26.20;16.83;;;;;;;8.15;82.67;97866.53;5009798;28;20477;-90
2021/04/19 07:23:04;;;;;;;26.17;16.05;;;;;;;8.34;83.34;97888.50;5032506;28;20026;-84
2021/04/19 07:25:30;;;;;;;23.70;16.33;;;;;;;8.27;84.87;97877.09;5034071;28;20116;-84
2021/04/19 07:27:59;;;;;;;24.98;17.05;;;;;;;8.06;83.08;97865.50;5033477;28;20021;-86
2021/04/19 07:30:25;;;;;;;22.67;16.23;;;;;;;8.43;81.93;97874.00;5035660;28;20030;-84
2021/04/19 07:32:50;;;;;;;27.70;18.48;;;;;;;8.12;82.39;97858.94;5030620;28;20079;-87
2021/04/19 07:35:27;;;;;;;25.92;16.13;;;;;;;8.84;79.44;97879.13;5012515;28;20033;-90
2021/04/19 07:38:04;;;;;;;22.05;16.02;;;;;;;8.79;78.37;97873.75;5015285;28;20030;-89
2021/04/19 07:40:31;;;;;;;20.38;15.68;;;;;;;9.11;77.15;97868.53;5013593;28;20040;-84
2021/04/19 07:43:18;;;;;;;25.63;14.98;;;;;;;9.21;75.65;97871.16;5013186;28;20034;-87
2021/04/19 07:46:05;;;;;;;21.30;14.45;;;;;;;9.42;76.23;97877.22;5014558;28;20029;-89
2021/04/19 07:48:44;;;;;;;24.83;15.25;;;;;;;9.47;75.62;97867.06;5014238;28;20022;-85
2021/04/19 07:51:27;;;;;;;16.70;12.90;;;;;;;9.76;74.58;97869.72;5014511;28;20049;-90
2021/04/19 07:54:14;;;;;;;20.13;13.95;;;;;;;9.71;73.19;97868.97;5013437;28;20069;-87
2021/04/19 07:57:00;;;;;;;20.83;15.15;;;;;;;9.53;74.18;97849.50;5015539;28;20018;-91
2021/04/19 07:59:29;;;;;;;24.00;14.93;;;;;;;9.80;73.25;97861.75;5011162;28;20049;-86
2021/04/19 08:02:03;;;;;;;26.10;14.52;;;;;;;10.43;71.70;97865.81;5014130;28;20034;-90
2021/04/19 08:04:30;;;;;;;20.25;12.73;;;;;;;10.28;71.36;97862.47;5012233;28;20117;-88
2021/04/19 08:06:56;;;;;;;18.48;14.02;;;;;;;9.92;73.04;97859.41;5012625;28;20026;-87
2021/04/19 08:09:26;;;;;;;23.35;15.00;;;;;;;9.91;72.59;97855.88;5012614;28;20383;-88
2021/04/19 08:11:57;;;;;;;20.83;14.32;;;;;;;9.85;72.64;97856.22;5019078;28;20140;-84
2021/04/19 08:14:33;;;;;;;19.40;13.70;;;;;;;9.64;73.15;97850.22;5032035;28;20029;-87
2021/04/19 08:17:11;;;;;;;24.35;13.48;;;;;;;9.56;72.49;97846.19;5032758;28;20025;-86
2021/04/19 08:19:39;;;;;;;17.33;11.80;;;;;;;9.38;72.49;97825.13;5033081;28;20478;-86
2021/04/19 08:22:14;;;;;;;29.10;13.68;;;;;;;9.52;73.00;97844.34;5031828;28;20371;-83
2021/04/19 08:24:40;;;;;;;18.15;13.00;;;;;;;9.88;72.23;97850.97;5032229;28;20030;-89
2021/04/19 08:27:05;;;;;;;18.98;14.65;;;;;;;10.44;71.26;97851.03;5031675;28;20486;-90
2021/04/19 08:29:35;;;;;;;16.90;12.48;;;;;;;10.55;69.54;97847.03;5031717;28;20155;-88
2021/04/19 08:32:01;;;;;;;17.25;12.77;;;;;;;9.97;69.61;97826.53;5033097;28;20108;-86
2021/04/19 08:34:27;;;;;;;16.67;12.30;;;;;;;10.47;68.94;97833.22;5032830;28;20028;-89
2021/04/19 08:36:53;;;;;;;17.33;13.50;;;;;;;10.19;69.71;97826.81;5032974;28;20029;-86
2021/04/19 08:39:19;;;;;;;23.00;12.25;;;;;;;10.17;69.29;97840.78;5030859;28;20474;-84
2021/04/19 08:41:44;;;;;;;19.17;11.77;;;;;;;10.67;67.55;97843.84;5013149;28;20030;-85
2021/04/19 08:44:10;;;;;;;20.58;12.50;;;;;;;10.80;67.34;97851.28;5019373;28;20137;-87
2021/04/19 08:46:36;;;;;;;17.85;12.18;;;;;;;11.27;65.86;97847.44;5011898;28;20034;-80
2021/04/19 08:49:01;;;;;;;18.08;12.35;;;;;;;11.85;62.76;97841.38;5014198;28;20074;-85
2021/04/19 08:51:27;;;;;;;16.08;10.45;;;;;;;12.29;60.99;97839.56;5012789;28;20049;-87
2021/04/19 08:53:52;;;;;;;15.65;11.25;;;;;;;12.41;60.62;97839.03;5011479;28;20542;-84
2021/04/19 08:56:18;;;;;;;13.55;10.45;;;;;;;12.19;60.68;97848.03;5014165;28;20026;-87
2021/04/19 08:58:43;;;;;;;13.43;9.82;;;;;;;12.10;60.40;97840.84;5018933;28;20524;-86
2021/04/19 09:01:09;;;;;;;14.15;10.00;;;;;;;12.47;59.57;97842.47;5018338;28;20084;-85
2021/04/19 09:03:34;;;;;;;12.00;8.80;;;;;;;12.72;56.41;97839.09;5013433;28;20029;-86
2021/04/19 09:06:14;;;;;;;10.38;7.95;;;;;;;12.85;54.70;97836.28;5013712;28;20022;-90
2021/04/19 09:08:40;;;;;;;12.02;7.80;;;;;;;13.56;52.48;97830.91;5032218;28;20048;-85
2021/04/19 09:11:10;;;;;;;8.57;6.30;;;;;;;14.11;51.90;97842.19;5032147;28;20033;-89
2021/04/19 09:13:44;;;;;;;10.23;7.18;;;;;;;13.79;50.91;97843.41;5033300;28;20022;-83
2021/04/19 09:16:24;;;;;;;9.10;7.50;;;;;;;13.01;53.27;97831.22;5034343;28;20108;-84
2021/04/19 09:18:52;;;;;;;14.57;8.88;;;;;;;13.39;53.41;97840.69;5032237;28;20029;-85
2021/04/19 09:21:47;;;;;;;11.02;8.40;;;;;;;13.95;51.46;97847.34;5063737;28;20905;-90
2021/04/19 09:24:15;;;;;;;10.70;7.72;;;;;;;14.15;49.83;97833.00;5059747;28;20041;-86
2021/04/19 09:26:49;;;;;;;11.23;6.93;;;;;;;14.22;48.56;97827.81;5048795;28;20087;-87
2021/04/19 09:29:24;;;;;;;16.80;8.35;;;;;;;13.97;49.43;97825.03;5048774;28;20055;-85
2021/04/19 09:32:05;;;;;;;9.00;7.18;;;;;;;14.83;47.66;97823.97;5048266;28;20088;-83
2021/04/19 09:34:44;;;;;;;10.15;6.93;;;;;;;16.47;45.41;97822.13;5046693;28;20021;-86
2021/04/19 09:37:14;;;;;;;14.32;8.18;;;;;;;16.30;46.14;97826.94;5046741;28;20033;-83
2021/04/19 09:39:55;;;;;;;12.25;8.55;;;;;;;16.12;44.95;97829.03;5047778;28;20036;-84
2021/04/19 09:43:15;;;;;;;9.40;7.63;;;;;;;15.79;45.68;97819.78;5049073;28;20153;-85
2021/04/19 09:45:46;;;;;;;11.98;7.07;;;;;;;15.52;44.96;97815.53;5054592;28;20046;-86
2021/04/19 09:48:27;;;;;;;4.45;3.95;;;;;;;16.44;42.02;97820.03;5051657;28;20028;-83
2021/04/19 09:50:57;;;;;;;7.75;5.82;;;;;;;17.25;42.33;97808.41;5048644;28;20028;-85
2021/04/19 09:53:23;;;;;;;4.82;3.80;;;;;;;17.65;40.44;97814.13;5048000;28;20108;-81
2021/04/19 09:55:49;;;;;;;4.60;3.75;;;;;;;16.13;42.25;97805.00;5054060;28;20369;-84
2021/04/19 09:58:15;;;;;;;8.40;4.80;;;;;;;16.21;43.03;97810.44;5047996;28;20033;-81
2021/04/19 10:00:42;;;;;;;6.45;5.65;;;;;;;16.30;42.64;97807.63;5046792;28;20026;-84
2021/04/19 10:03:09;;;;;;;9.50;5.45;;;;;;;16.44;43.09;97797.13;5048033;28;20425;-80
2021/04/19 10:05:36;;;;;;;6.13;4.47;;;;;;;16.38;41.90;97798.47;5058204;28;20022;-83
2021/04/19 10:08:04;;;;;;;7.30;4.38;;;;;;;17.07;39.85;97799.47;5036516;28;20118;-81
2021/04/19 10:10:31;;;;;;;5.63;4.00;;;;;;;16.87;39.17;97805.88;5038255;28;20029;-80
2021/04/19 10:12:56;;;;;;;3.33;2.42;;;;;;;17.28;37.69;97795.84;5027724;28;20103;-79
2021/04/19 10:15:25;;;;;;;5.13;3.40;;;;;;;16.70;38.64;97791.41;5042602;28;20034;-86
2021/04/19 10:17:51;;;;;;;3.67;3.17;;;;;;;16.25;40.88;97794.03;5028344;28;20065;-86
2021/04/19 10:20:21;;;;;;;3.53;2.95;;;;;;;17.48;38.42;97786.66;5027803;28;20110;-87
2021/04/19 10:23:04;;;;;;;5.03;2.95;;;;;;;17.65;37.76;97787.28;5049855;28;20029;-86
2021/04/19 10:25:29;;;;;;;5.50;3.85;;;;;;;15.65;40.92;97778.66;5049975;28;20033;-79
2021/04/19 10:27:55;;;;;;;4.72;3.60;;;;;;;15.91;41.28;97773.78;5046868;28;20546;-83
2021/04/19 10:30:21;;;;;;;3.35;2.70;;;;;;;16.42;39.12;97788.38;5047103;28;20029;-80
2021/04/19 10:32:47;;;;;;;2.90;2.22;;;;;;;17.10;37.81;97782.22;5034547;28;20849;-78
2021/04/19 10:35:29;;;;;;;2.45;2.22;;;;;;;16.40;39.00;97780.44;5033259;28;20029;-79
2021/04/19 10:37:55;;;;;;;3.80;2.60;;;;;;;15.35;41.08;97776.97;5033529;28;20079;-85
2021/04/19 10:40:21;;;;;;;3.83;3.15;;;;;;;15.59;40.93;97771.72;5031539;28;20042;-79
2021/04/19 10:42:46;;;;;;;3.40;2.30;;;;;;;15.20;41.17;97774.75;5032975;28;20033;-82
2021/04/19 10:45:12;;;;;;;3.38;2.67;;;;;;;16.26;39.56;97743.19;5034070;28;20028;-79
2021/04/19 10:47:39;;;;;;;2.97;2.22;;;;;;;16.14;40.30;97765.19;5031980;28;20069;-78
2021/04/19 10:50:06;;;;;;;3.58;3.13;;;;;;;15.60;41.14;97750.47;5038460;28;20506;-78
2021/04/19 10:52:31;;;;;;;6.05;2.78;;;;;;;15.25;42.09;97760.81;5034197;28;20029;-77
2021/04/19 10:55:04;;;;;;;3.15;2.60;;;;;;;14.39;43.78;97736.25;5036394;28;20504;-79
2021/04/19 10:57:30;;;;;;;5.35;2.78;;;;;;;14.53;44.33;97742.38;5036120;28;20045;-77
2021/04/19 10:59:58;;;;;;;3.75;2.45;;;;;;;15.00;43.19;97748.75;5033132;28;20021;-81
2021/04/19 11:02:26;;;;;;;2.83;2.53;;;;;;;15.05;42.51;97745.81;5031723;28;20100;-78
2021/04/19 11:04:54;;;;;;;3.78;2.83;;;;;;;14.95;42.99;97732.41;5033127;28;20048;-82
2021/04/19 11:07:28;;;;;;;5.43;3.25;;;;;;;15.22;42.65;97742.19;5031863;28;20083;-79
2021/04/19 11:10:22;;;;;;;2.90;2.60;;;;;;;14.99;43.34;97736.94;5033223;28;20597;-80
2021/04/19 11:13:00;;;;;;;4.05;2.88;;;;;;;14.47;44.42;97732.69;5012871;28;20049;-80
2021/04/19 11:15:37;;;;;;;7.50;3.95;;;;;;;13.63;45.66;97727.59;5029634;28;20053;-76
2021/04/19 11:18:22;;;;;;;3.95;2.58;;;;;;;14.30;45.24;97724.41;5014282;28;20376;-75
2021/04/19 11:20:53;;;;;;;3.58;2.50;;;;;;;14.57;44.19;97717.75;5032226;28;20053;-77
2021/04/19 11:23:27;;;;;;;2.33;2.00;;;;;;;15.16;43.02;97724.22;5033570;28;20493;-80
2021/04/19 11:25:55;;;;;;;4.07;2.63;;;;;;;14.40;43.65;97719.41;5033435;28;20029;-76
2021/04/19 11:28:30;;;;;;;4.28;1.85;;;;;;;15.15;42.02;97725.34;5031645;28;20017;-76
2021/04/19 11:30:57;;;;;;;2.55;1.85;;;;;;;14.67;43.47;97714.66;5032916;28;20374;-76
2021/04/19 11:33:27;;;;;;;2.38;1.98;;;;;;;14.87;43.41;97720.28;5033021;28;20040;-77
2021/04/19 11:36:02;;;;;;;2.88;2.30;;;;;;;14.06;44.76;97715.84;5033003;28;20026;-76
2021/04/19 11:38:28;;;;;;;4.05;2.63;;;;;;;14.42;43.97;97713.56;5033352;28;20040;-77
2021/04/19 11:40:58;;;;;;;3.10;2.17;;;;;;;14.61;44.39;97711.28;5032249;28;20030;-78
2021/04/19 11:43:30;;;;;;;4.20;2.70;;;;;;;14.22;44.67;97704.00;5032280;28;20026;-78